createdAt,value
2022-10-14T00:00:55.207Z,2.20
2022-10-14T00:05:01.890Z,1.90
2022-10-14T00:08:47.981Z,2.10
2022-10-14T00:12:37.581Z,3.10
2022-10-14T00:16:27.154Z,2.80
2022-10-14T00:20:08.952Z,3.20
2022-10-14T00:23:58.693Z,1.60
2022-10-14T00:27:24.797Z,3.10
2022-10-14T00:31:23.146Z,2.80
2022-10-14T00:35:05.173Z,1.90
2022-10-14T00:38:45.222Z,1.60
2022-10-14T00:42:33.789Z,1.80
2022-10-14T00:46:23.536Z,2.10
2022-10-14T00:50:31.278Z,2.30
2022-10-14T00:54:21.067Z,2.20
2022-10-14T00:58:04.089Z,2.70
2022-10-14T01:01:53.774Z,2.40
2022-10-14T01:05:43.680Z,2.10
2022-10-14T01:09:33.212Z,2.70
2022-10-14T01:13:27.405Z,2.20
2022-10-14T01:17:20.092Z,2.40
2022-10-14T01:21:08.866Z,1.40
2022-10-14T01:24:56.490Z,2.30
2022-10-14T01:29:04.437Z,2.40
2022-10-14T01:33:08.890Z,2.60
2022-10-14T01:37:04.535Z,1.60
2022-10-14T01:40:39.702Z,1.50
2022-10-14T01:44:18.842Z,1.40
2022-10-14T01:48:08.553Z,2.90
2022-10-14T01:51:54.026Z,2.00
2022-10-14T01:55:17.642Z,1.20
2022-10-14T01:59:08.094Z,2.30
2022-10-14T02:02:41.333Z,2.30
2022-10-14T02:06:39.891Z,3.60
2022-10-14T02:10:26.597Z,2.90
2022-10-14T02:14:25.402Z,1.60
2022-10-14T02:18:21.119Z,2.70
2022-10-14T02:22:13.936Z,1.50
2022-10-14T02:25:55.443Z,2.40
2022-10-14T02:29:32.050Z,2.40
2022-10-14T02:33:12.126Z,3.00
2022-10-14T02:37:01.814Z,3.00
2022-10-14T02:40:57.317Z,2.80
2022-10-14T02:44:29.795Z,2.30
2022-10-14T02:48:19.372Z,2.50
2022-10-14T02:52:09.477Z,2.10
2022-10-14T02:55:59.058Z,3.00
2022-10-14T02:59:41.387Z,2.50
2022-10-14T03:03:24.389Z,2.30
2022-10-14T03:07:00.459Z,2.80
2022-10-14T03:10:50.374Z,2.50
2022-10-14T03:14:39.833Z,2.40
2022-10-14T03:18:28.285Z,3.20
2022-10-14T03:22:13.010Z,2.10
2022-10-14T03:26:02.802Z,2.10
2022-10-14T03:29:51.195Z,3.80
2022-10-14T03:33:39.817Z,2.60
2022-10-14T03:37:29.232Z,2.00
2022-10-14T03:41:19.028Z,2.10
2022-10-14T03:45:08.501Z,1.50
2022-10-14T03:48:42.585Z,2.70
2022-10-14T03:52:32.224Z,2.00
2022-10-14T03:56:14.648Z,2.40
2022-10-14T03:59:50.701Z,1.60
2022-10-14T04:03:40.551Z,3.70
2022-10-14T04:07:27.555Z,2.90
2022-10-14T04:11:17.545Z,2.40
2022-10-14T04:14:59.307Z,2.40
2022-10-14T04:18:40.371Z,2.50
2022-10-14T04:22:30.357Z,2.60
2022-10-14T04:26:11.233Z,2.50
2022-10-14T04:29:54.878Z,3.30
2022-10-14T04:33:43.640Z,2.30
2022-10-14T04:37:33.840Z,2.80
2022-10-14T04:41:25.994Z,2.50
2022-10-14T04:45:15.711Z,2.40
2022-10-14T04:48:54.297Z,2.80
2022-10-14T04:52:43.945Z,3.70
2022-10-14T04:56:33.663Z,3.30
2022-10-14T05:00:14.520Z,2.70
2022-10-14T05:03:56.162Z,2.80
2022-10-14T05:07:43.381Z,2.90
2022-10-14T05:11:33.358Z,2.90
2022-10-14T05:15:03.682Z,2.50
2022-10-14T05:18:53.712Z,2.50
2022-10-14T05:22:35.895Z,3.40
2022-10-14T05:26:25.774Z,2.70
2022-10-14T05:30:15.894Z,2.80
2022-10-14T05:34:04.324Z,2.70
2022-10-14T05:37:53.908Z,2.80
2022-10-14T05:41:43.256Z,2.50
2022-10-14T05:45:32.932Z,3.80
2022-10-14T05:49:12.607Z,3.80
2022-10-14T05:53:02.713Z,3.10
2022-10-14T05:56:52.681Z,2.40
2022-10-14T06:00:41.671Z,3.90
2022-10-14T06:04:30.404Z,3.30
2022-10-14T06:08:12.962Z,3.10
2022-10-14T06:11:48.811Z,2.80
2022-10-14T06:15:23.558Z,3.30
2022-10-14T06:18:58.477Z,3.20
2022-10-14T06:22:48.548Z,2.00
2022-10-14T06:26:38.140Z,2.20
2022-10-14T06:30:28.058Z,3.10
2022-10-14T06:34:10.673Z,2.40
2022-10-14T06:38:00.735Z,3.70
2022-10-14T06:41:53.183Z,2.30
2022-10-14T06:45:42.898Z,2.20
2022-10-14T06:49:21.320Z,3.70
2022-10-14T06:53:11.006Z,3.60
2022-10-14T06:57:00.622Z,3.80
2022-10-14T07:00:32.456Z,2.30
2022-10-14T07:04:22.168Z,2.20
2022-10-14T07:08:15.303Z,3.00
2022-10-14T07:12:06.029Z,2.60
2022-10-14T07:15:58.569Z,4.60
2022-10-14T07:19:48.350Z,2.40
2022-10-14T07:23:37.948Z,2.30
2022-10-14T07:27:13.168Z,2.40
2022-10-14T07:31:01.853Z,3.20
2022-10-14T07:34:24.698Z,3.20
2022-10-14T07:38:13.866Z,3.20
2022-10-14T07:42:03.250Z,3.10
2022-10-14T07:45:53.030Z,3.20
2022-10-14T07:49:45.380Z,3.50
2022-10-14T07:53:28.205Z,3.50
2022-10-14T07:57:12.152Z,2.90
2022-10-14T08:01:02.402Z,4.20
2022-10-14T08:04:45.736Z,2.70
2022-10-14T08:08:20.664Z,2.10
2022-10-14T08:12:13.690Z,3.50
2022-10-14T08:16:04.302Z,2.80
2022-10-14T08:19:54.070Z,4.10
2022-10-14T08:23:33.322Z,2.00
2022-10-14T08:27:25.975Z,3.10
2022-10-14T08:31:15.373Z,3.50
2022-10-14T08:35:07.498Z,6.00
2022-10-14T08:38:57.550Z,5.90
2022-10-14T08:42:48.303Z,4.50
2022-10-14T08:46:41.268Z,2.30
2022-10-14T08:50:25.628Z,2.40
2022-10-14T08:54:15.267Z,4.40
2022-10-14T08:58:07.511Z,3.10
2022-10-14T09:02:05.328Z,2.60
2022-10-14T09:05:48.048Z,3.10
2022-10-14T09:09:21.240Z,3.40
2022-10-14T09:16:39.538Z,4.20
2022-10-14T09:20:17.758Z,2.00
2022-10-14T09:24:07.405Z,3.00
2022-10-14T09:27:59.916Z,3.00
2022-10-14T09:31:49.860Z,2.50
2022-10-14T09:35:40.080Z,1.90
2022-10-14T09:39:09.059Z,2.70
2022-10-14T09:42:47.083Z,2.50
2022-10-14T09:46:48.962Z,1.70
2022-10-14T09:50:38.626Z,3.20
2022-10-14T09:54:40.155Z,3.30
2022-10-14T09:58:29.770Z,6.20
2022-10-14T10:02:19.494Z,2.80
2022-10-14T10:06:14.855Z,3.60
2022-10-14T10:09:58.223Z,3.10
2022-10-14T10:13:36.356Z,2.30
2022-10-14T10:17:30.414Z,2.50
2022-10-14T10:21:12.361Z,3.30
2022-10-14T10:24:45.312Z,3.90
2022-10-14T10:28:34.415Z,3.70
2022-10-14T10:32:13.420Z,2.10
2022-10-14T10:36:12.081Z,3.10
2022-10-14T10:40:10.502Z,1.70
2022-10-14T10:44:19.047Z,2.80
2022-10-14T10:47:51.334Z,3.00
2022-10-14T10:51:43.152Z,2.90
2022-10-14T10:59:42.848Z,2.30
2022-10-14T11:03:15.619Z,3.00
2022-10-14T11:07:01.382Z,5.00
2022-10-14T11:10:53.610Z,3.60
2022-10-14T11:14:46.167Z,2.50
2022-10-14T11:18:51.214Z,2.40
2022-10-14T11:22:43.761Z,1.90
2022-10-14T11:26:44.182Z,2.30
2022-10-14T11:30:58.045Z,2.80
2022-10-14T11:38:16.223Z,3.60
2022-10-14T11:42:25.873Z,2.10
2022-10-14T11:46:18.424Z,2.00
2022-10-14T11:50:10.154Z,1.80
2022-10-14T11:54:08.387Z,3.00
2022-10-14T11:58:16.244Z,2.90
2022-10-14T12:02:08.948Z,2.00
2022-10-14T12:05:57.668Z,2.50
2022-10-14T12:09:39.936Z,2.50
2022-10-14T12:13:29.385Z,2.70
2022-10-14T12:17:14.701Z,2.60
2022-10-14T12:21:10.471Z,2.60
2022-10-14T12:25:00.148Z,3.40
2022-10-14T12:28:48.665Z,4.10
2022-10-14T12:32:45.966Z,3.70
2022-10-14T12:36:47.928Z,1.90
2022-10-14T12:40:28.614Z,3.40
2022-10-14T12:44:18.580Z,1.60
2022-10-14T12:48:08.103Z,3.10
2022-10-14T12:51:56.900Z,2.80
2022-10-14T12:55:49.177Z,2.80
2022-10-14T12:59:19.397Z,3.60
2022-10-14T13:03:07.374Z,3.50
2022-10-14T13:06:45.129Z,1.80
2022-10-14T13:10:32.196Z,4.00
2022-10-14T13:14:20.938Z,2.30
2022-10-14T13:18:11.986Z,2.20
2022-10-14T13:22:17.639Z,3.20
2022-10-14T13:26:12.237Z,3.20
2022-10-14T13:29:59.190Z,2.70
2022-10-14T13:33:45.564Z,3.40
2022-10-14T13:37:53.532Z,2.90
2022-10-14T13:41:58.215Z,3.80
2022-10-14T13:45:46.157Z,3.20
2022-10-14T13:49:36.056Z,2.90
2022-10-14T13:53:28.290Z,3.50
2022-10-14T14:01:37.086Z,3.20
2022-10-14T14:12:49.521Z,3.60
2022-10-14T14:16:32.891Z,3.10
2022-10-14T14:20:25.158Z,4.30
2022-10-14T14:24:14.738Z,2.90
2022-10-14T14:27:44.702Z,2.30
2022-10-14T14:32:01.399Z,3.70
2022-10-14T14:35:33.080Z,2.70
2022-10-14T14:39:23.009Z,3.40
2022-10-14T14:43:15.276Z,3.20
2022-10-14T14:46:58.039Z,2.70
2022-10-14T14:50:34.230Z,2.10
2022-10-14T14:54:23.176Z,3.00
2022-10-14T14:58:12.981Z,2.60
2022-10-14T15:02:03.172Z,2.70
2022-10-14T15:06:00.937Z,2.40
2022-10-14T15:09:50.494Z,3.20
2022-10-14T15:13:40.205Z,3.10
2022-10-14T15:17:22.864Z,3.20
2022-10-14T15:20:57.657Z,3.40
2022-10-14T15:24:53.408Z,2.10
2022-10-14T15:28:43.573Z,1.80
2022-10-14T15:32:42.013Z,2.80
2022-10-14T15:36:25.168Z,2.50
2022-10-14T15:40:14.894Z,3.40
2022-10-14T15:43:57.198Z,2.40
2022-10-14T15:47:46.824Z,2.50
2022-10-14T15:51:36.612Z,2.10
2022-10-14T15:55:26.151Z,3.50
2022-10-14T15:59:08.577Z,2.10
2022-10-14T16:02:50.883Z,2.80
2022-10-14T16:06:40.716Z,2.60
2022-10-14T16:10:02.335Z,2.70
2022-10-14T16:13:22.382Z,2.50
2022-10-14T16:16:55.726Z,3.10
2022-10-14T16:20:45.410Z,2.70
2022-10-14T16:24:35.562Z,4.70
2022-10-14T16:28:14.108Z,3.60
2022-10-14T16:32:03.554Z,3.20
2022-10-14T16:35:53.176Z,3.40
2022-10-14T16:39:15.240Z,2.60
2022-10-14T16:43:04.071Z,2.30
2022-10-14T16:46:52.409Z,3.20
2022-10-14T16:50:41.954Z,3.20
2022-10-14T16:54:32.900Z,2.80
2022-10-14T16:58:22.538Z,4.50
2022-10-14T17:02:12.324Z,3.20
2022-10-14T17:06:02.141Z,3.20
2022-10-14T17:09:43.706Z,2.40
2022-10-14T17:13:33.271Z,4.90
2022-10-14T17:17:22.928Z,3.20
2022-10-14T17:21:13.014Z,6.10
2022-10-14T17:24:46.316Z,3.70
2022-10-14T17:32:04.864Z,5.30
2022-10-14T17:35:50.895Z,4.90
2022-10-14T17:39:40.506Z,5.50
2022-10-14T17:43:29.248Z,5.50
2022-10-14T17:47:18.617Z,4.90
2022-10-14T17:51:06.888Z,2.80
2022-10-14T17:54:50.760Z,4.20
2022-10-14T17:58:39.244Z,5.70
2022-10-14T18:02:27.901Z,3.80
2022-10-14T18:06:18.286Z,4.60
2022-10-14T18:09:49.655Z,4.90
2022-10-14T18:13:28.974Z,5.10
2022-10-14T18:17:20.126Z,3.60
2022-10-14T18:20:55.444Z,3.60
2022-10-14T18:24:45.347Z,3.40
2022-10-14T18:28:34.280Z,4.30
2022-10-14T18:32:14.288Z,4.40
2022-10-14T18:35:50.248Z,3.10
2022-10-14T18:39:38.708Z,3.00
2022-10-14T18:43:28.404Z,3.20
2022-10-14T18:47:18.418Z,4.40
2022-10-14T18:50:58.268Z,3.20
2022-10-14T18:54:40.670Z,3.90
2022-10-14T18:58:20.039Z,3.40
2022-10-14T19:01:58.298Z,3.20
2022-10-14T19:05:33.044Z,4.40
2022-10-14T19:09:24.429Z,4.70
2022-10-14T19:13:07.126Z,3.70
2022-10-14T19:17:02.566Z,3.70
2022-10-14T19:20:35.842Z,4.50
2022-10-14T19:24:04.329Z,3.10
2022-10-14T19:27:54.324Z,3.50
2022-10-14T19:31:47.255Z,4.70
2022-10-14T19:35:37.292Z,4.50
2022-10-14T19:39:20.197Z,4.50
2022-10-14T19:43:13.034Z,3.20
2022-10-14T19:47:09.093Z,4.30
2022-10-14T19:51:01.851Z,5.10
2022-10-14T19:54:56.854Z,4.70
2022-10-14T19:58:46.952Z,5.00
2022-10-14T20:02:33.107Z,5.30
2022-10-14T20:06:22.634Z,4.20
2022-10-14T20:10:13.246Z,4.00
2022-10-14T20:14:00.400Z,3.80
2022-10-14T20:17:50.930Z,4.10
2022-10-14T20:21:40.355Z,3.60
2022-10-14T20:25:29.932Z,5.10
2022-10-14T20:29:20.443Z,4.40
2022-10-14T20:32:48.322Z,4.60
2022-10-14T20:36:33.532Z,5.10
2022-10-14T20:40:24.466Z,4.00
2022-10-14T20:44:14.418Z,3.40
2022-10-14T20:48:04.822Z,4.30
2022-10-14T20:51:58.885Z,5.10
2022-10-14T20:55:49.004Z,4.00
2022-10-14T20:59:22.139Z,5.00
2022-10-14T21:03:12.402Z,5.60
2022-10-14T21:06:47.106Z,4.10
2022-10-14T21:10:37.406Z,4.80
2022-10-14T21:14:27.294Z,3.00
2022-10-14T21:18:17.700Z,6.90
2022-10-14T21:22:07.688Z,4.00
2022-10-14T21:25:40.184Z,5.30
2022-10-14T21:29:10.193Z,4.80
2022-10-14T21:33:00.292Z,5.00
2022-10-14T21:36:50.078Z,4.80
2022-10-14T21:40:40.175Z,4.70
2022-10-14T21:44:23.922Z,5.80
2022-10-14T21:48:13.808Z,5.60
2022-10-14T21:52:07.411Z,6.10
2022-10-14T21:55:57.715Z,4.60
2022-10-14T21:59:37.609Z,4.90
2022-10-14T22:03:27.295Z,6.10
2022-10-14T22:07:16.708Z,5.50
2022-10-14T22:11:01.913Z,6.00
2022-10-14T22:14:51.557Z,5.20
2022-10-14T22:18:41.780Z,5.10
2022-10-14T22:22:31.482Z,5.50
2022-10-14T22:26:21.145Z,5.30
2022-10-14T22:30:11.150Z,5.60
2022-10-14T22:34:00.815Z,5.00
2022-10-14T22:37:50.806Z,5.90
2022-10-14T22:41:43.557Z,4.60
2022-10-14T22:45:23.618Z,5.60
2022-10-14T22:49:05.077Z,8.10
2022-10-14T22:52:54.416Z,5.00
2022-10-14T22:56:44.378Z,6.00
2022-10-14T23:00:34.300Z,5.30
2022-10-14T23:04:24.026Z,5.40
2022-10-14T23:08:13.838Z,3.40
2022-10-14T23:11:45.102Z,5.60
2022-10-14T23:15:31.985Z,5.70
2022-10-14T23:19:21.901Z,6.30
2022-10-14T23:23:08.576Z,5.60
2022-10-14T23:26:58.430Z,6.30
2022-10-14T23:30:48.264Z,4.90
2022-10-14T23:34:40.496Z,6.70
2022-10-14T23:38:15.372Z,7.70
2022-10-14T23:42:05.140Z,4.80
2022-10-14T23:45:55.060Z,6.00
2022-10-14T23:49:35.148Z,5.40
2022-10-14T23:53:24.766Z,4.70
2022-10-14T23:57:14.496Z,6.80
